createdAt,value
2023-11-18T00:01:11.726Z,64.03
2023-11-18T00:03:38.579Z,64.26
2023-11-18T00:06:05.738Z,64.58
2023-11-18T00:08:32.588Z,64.43
2023-11-18T00:10:59.362Z,64.55
2023-11-18T00:13:27.590Z,64.47
2023-11-18T00:15:54.398Z,64.53
2023-11-18T00:18:21.203Z,64.62
2023-11-18T00:20:48.314Z,64.48
2023-11-18T00:23:18.084Z,64.40
2023-11-18T00:25:46.511Z,64.73
2023-11-18T00:28:13.305Z,64.54
2023-11-18T00:30:41.332Z,64.70
2023-11-18T00:33:10.311Z,64.55
2023-11-18T00:35:37.225Z,64.78
2023-11-18T00:38:04.130Z,64.63
2023-11-18T00:40:33.301Z,64.66
2023-11-18T00:42:59.999Z,64.87
2023-11-18T00:45:26.742Z,64.75
2023-11-18T00:47:53.525Z,64.68
2023-11-18T00:50:21.313Z,65.05
2023-11-18T00:52:52.123Z,65.10
2023-11-18T00:55:19.296Z,64.87
2023-11-18T00:57:46.528Z,64.77
2023-11-18T01:00:15.747Z,64.84
2023-11-18T01:02:43.723Z,64.87
2023-11-18T01:05:12.242Z,64.98
2023-11-18T01:07:39.644Z,65.05
2023-11-18T01:10:07.502Z,65.06
2023-11-18T01:12:35.073Z,64.82
2023-11-18T01:15:02.085Z,64.83
2023-11-18T01:17:28.841Z,65.02
2023-11-18T01:19:56.157Z,65.13
2023-11-18T01:22:23.274Z,64.92
2023-11-18T01:24:50.025Z,65.17
2023-11-18T01:27:16.854Z,65.56
2023-11-18T01:29:43.718Z,65.24
2023-11-18T01:32:10.992Z,65.14
2023-11-18T01:34:41.198Z,65.30
2023-11-18T01:37:11.152Z,65.26
2023-11-18T01:39:38.138Z,65.27
2023-11-18T01:42:05.238Z,65.13
2023-11-18T01:44:32.274Z,65.49
2023-11-18T01:46:59.766Z,65.51
2023-11-18T01:49:28.791Z,65.22
2023-11-18T01:51:57.883Z,65.37
2023-11-18T01:54:25.129Z,65.46
2023-11-18T01:56:56.425Z,65.26
2023-11-18T01:59:24.201Z,65.22
2023-11-18T02:01:55.305Z,65.50
2023-11-18T02:04:25.098Z,65.04
2023-11-18T02:06:53.924Z,65.15
2023-11-18T02:09:28.757Z,65.20
2023-11-18T02:11:58.491Z,65.08
2023-11-18T02:14:28.581Z,64.94
2023-11-18T02:17:00.411Z,65.15
2023-11-18T02:19:28.060Z,65.21
2023-11-18T02:21:55.771Z,65.47
2023-11-18T02:24:28.105Z,65.43
2023-11-18T02:26:58.006Z,65.44
2023-11-18T02:29:26.206Z,65.95
2023-11-18T02:31:59.861Z,65.16
2023-11-18T02:34:32.705Z,65.50
2023-11-18T02:37:04.655Z,65.51
2023-11-18T02:39:40.756Z,65.31
2023-11-18T02:42:11.999Z,65.46
2023-11-18T02:44:39.585Z,65.30
2023-11-18T02:47:06.659Z,65.55
2023-11-18T02:49:36.325Z,65.35
2023-11-18T02:52:05.794Z,65.62
2023-11-18T02:54:32.515Z,65.34
2023-11-18T02:57:00.119Z,65.38
2023-11-18T02:59:31.429Z,65.28
2023-11-18T03:01:58.282Z,65.39
2023-11-18T03:04:27.101Z,65.51
2023-11-18T03:06:53.828Z,65.67
2023-11-18T03:09:20.689Z,65.38
2023-11-18T03:11:47.462Z,65.39
2023-11-18T03:14:14.425Z,65.38
2023-11-18T03:16:41.410Z,65.20
2023-11-18T03:19:10.124Z,66.07
2023-11-18T03:21:37.903Z,65.28
2023-11-18T03:24:05.141Z,65.57
2023-11-18T03:26:33.728Z,65.46
2023-11-18T03:29:00.701Z,65.24
2023-11-18T03:31:28.364Z,65.46
2023-11-18T03:33:57.550Z,65.55
2023-11-18T03:36:24.331Z,65.48
2023-11-18T03:38:51.043Z,65.57
2023-11-18T03:41:17.743Z,65.56
2023-11-18T03:43:44.507Z,65.54
2023-11-18T03:46:12.057Z,65.48
2023-11-18T03:48:39.053Z,65.54
2023-11-18T03:51:05.936Z,65.38
2023-11-18T03:53:35.037Z,65.58
2023-11-18T03:56:03.458Z,65.71
2023-11-18T03:58:30.534Z,65.71
2023-11-18T04:01:01.404Z,65.80
2023-11-18T04:03:28.286Z,65.89
2023-11-18T04:05:54.981Z,65.80
2023-11-18T04:08:22.596Z,65.84
2023-11-18T04:10:49.345Z,66.03
2023-11-18T04:13:16.248Z,65.75
2023-11-18T04:15:43.076Z,65.32
2023-11-18T04:18:09.838Z,66.00
2023-11-18T04:20:36.585Z,65.87
2023-11-18T04:23:03.348Z,65.99
2023-11-18T04:25:35.957Z,66.22
2023-11-18T04:28:02.704Z,66.14
2023-11-18T04:30:30.611Z,66.12
2023-11-18T04:32:57.337Z,66.63
2023-11-18T04:35:25.716Z,66.29
2023-11-18T04:37:52.624Z,66.22
2023-11-18T04:40:19.397Z,66.12
2023-11-18T04:42:46.226Z,66.10
2023-11-18T04:45:15.658Z,65.91
2023-11-18T04:47:44.507Z,65.99
2023-11-18T04:50:12.464Z,66.28
2023-11-18T04:52:39.317Z,65.93
2023-11-18T04:55:07.136Z,66.38
2023-11-18T04:57:34.200Z,66.13
2023-11-18T05:00:11.276Z,65.98
2023-11-18T05:02:41.888Z,66.21
2023-11-18T05:05:09.260Z,65.91
2023-11-18T05:07:36.900Z,66.03
2023-11-18T05:10:09.442Z,66.14
2023-11-18T05:12:36.203Z,66.23
2023-11-18T05:15:07.456Z,66.28
2023-11-18T05:17:40.317Z,66.08
2023-11-18T05:20:12.400Z,66.18
2023-11-18T05:22:39.505Z,66.25
2023-11-18T05:25:06.764Z,66.04
2023-11-18T05:27:35.007Z,66.05
2023-11-18T05:30:04.445Z,65.93
2023-11-18T05:32:35.634Z,66.08
2023-11-18T05:35:05.067Z,65.95
2023-11-18T05:37:36.421Z,66.03
2023-11-18T05:40:08.624Z,65.73
2023-11-18T05:42:43.140Z,65.88
2023-11-18T05:45:18.627Z,65.92
2023-11-18T05:47:45.781Z,66.12
2023-11-18T05:50:12.911Z,66.10
2023-11-18T05:52:39.642Z,66.06
2023-11-18T05:55:07.601Z,66.04
2023-11-18T05:57:37.747Z,66.13
2023-11-18T06:00:07.502Z,66.31
2023-11-18T06:02:35.564Z,66.10
2023-11-18T06:05:06.071Z,65.82
2023-11-18T06:07:32.824Z,66.44
2023-11-18T06:09:59.608Z,66.24
2023-11-18T06:12:28.067Z,66.48
2023-11-18T06:14:54.802Z,66.04
2023-11-18T06:17:22.998Z,66.43
2023-11-18T06:19:50.690Z,66.12
2023-11-18T06:22:17.540Z,66.31
2023-11-18T06:24:44.231Z,66.14
2023-11-18T06:27:11.354Z,66.89
2023-11-18T06:29:38.046Z,66.58
2023-11-18T06:32:07.236Z,66.49
2023-11-18T06:34:34.230Z,66.36
2023-11-18T06:37:01.047Z,66.16
2023-11-18T06:39:31.014Z,66.42
2023-11-18T06:41:59.582Z,66.27
2023-11-18T06:44:26.468Z,66.74
2023-11-18T06:46:53.423Z,66.31
2023-11-18T06:49:20.922Z,66.39
2023-11-18T06:51:48.914Z,66.56
2023-11-18T06:54:15.770Z,66.15
2023-11-18T06:56:44.753Z,66.30
2023-11-18T06:59:14.450Z,66.36
2023-11-18T07:01:44.199Z,65.92
2023-11-18T07:04:11.478Z,66.35
2023-11-18T07:06:39.690Z,66.17
2023-11-18T07:09:14.276Z,66.11
2023-11-18T07:11:42.282Z,66.14
2023-11-18T07:14:12.208Z,66.06
2023-11-18T07:16:40.356Z,65.60
2023-11-18T07:19:08.459Z,65.76
2023-11-18T07:21:36.004Z,65.77
2023-11-18T07:24:13.350Z,65.55
2023-11-18T07:26:48.610Z,65.83
2023-11-18T07:29:17.497Z,65.74
2023-11-18T07:31:51.301Z,65.74
2023-11-18T07:34:18.138Z,65.68
2023-11-18T07:36:47.476Z,65.65
2023-11-18T07:39:17.319Z,65.51
2023-11-18T07:41:44.339Z,65.38
2023-11-18T07:44:14.444Z,65.09
2023-11-18T07:46:44.523Z,65.10
2023-11-18T07:49:12.473Z,64.75
2023-11-18T07:51:41.995Z,64.94
2023-11-18T07:54:08.970Z,65.29
2023-11-18T07:56:37.835Z,65.36
2023-11-18T07:59:04.933Z,65.28
2023-11-18T08:01:34.823Z,65.02
2023-11-18T08:04:01.665Z,65.08
2023-11-18T08:06:28.385Z,65.18
2023-11-18T08:08:55.688Z,65.16
2023-11-18T08:11:22.420Z,65.14
2023-11-18T08:13:49.357Z,64.93
2023-11-18T08:16:17.248Z,64.91
2023-11-18T08:18:46.284Z,64.99
2023-11-18T08:21:14.409Z,64.93
2023-11-18T08:23:45.328Z,65.20
2023-11-18T08:26:13.609Z,64.91
2023-11-18T08:28:42.369Z,65.07
2023-11-18T08:31:10.602Z,65.08
2023-11-18T08:33:37.350Z,65.05
2023-11-18T08:36:04.432Z,65.23
2023-11-18T08:38:31.142Z,64.86
2023-11-18T08:40:57.920Z,65.27
2023-11-18T08:43:24.732Z,65.10
2023-11-18T08:45:52.679Z,65.10
2023-11-18T08:48:20.001Z,64.77
2023-11-18T08:50:48.170Z,65.09
2023-11-18T08:53:19.427Z,65.32
2023-11-18T08:55:53.636Z,65.56
2023-11-18T08:58:23.319Z,65.47
2023-11-18T09:01:14.056Z,64.91
2023-11-18T09:03:44.987Z,65.03
2023-11-18T09:06:27.302Z,64.97
2023-11-18T09:08:55.269Z,65.27
2023-11-18T09:11:26.296Z,65.41
2023-11-18T09:13:55.545Z,65.10
2023-11-18T09:16:34.546Z,65.10
2023-11-18T09:19:04.321Z,65.10
2023-11-18T09:21:36.672Z,65.07
2023-11-18T09:24:06.117Z,65.02
2023-11-18T09:26:32.875Z,64.93
2023-11-18T09:29:02.821Z,64.90
2023-11-18T09:31:30.171Z,64.43
2023-11-18T09:33:59.979Z,64.76
2023-11-18T09:36:30.074Z,64.65
2023-11-18T09:38:58.029Z,64.79
2023-11-18T09:41:29.636Z,64.48
2023-11-18T09:43:59.233Z,64.33
2023-11-18T09:46:34.815Z,64.23
2023-11-18T09:49:18.839Z,64.67
2023-11-18T09:51:49.778Z,64.70
2023-11-18T09:54:34.432Z,64.77
2023-11-18T09:57:16.831Z,64.77
2023-11-18T10:00:00.490Z,64.65
2023-11-18T10:02:27.533Z,65.04
2023-11-18T10:05:01.709Z,64.82
2023-11-18T10:07:34.240Z,64.79
2023-11-18T10:10:03.143Z,64.44
2023-11-18T10:12:31.072Z,64.27
2023-11-18T10:15:01.544Z,64.38
2023-11-18T10:17:28.844Z,64.44
2023-11-18T10:20:14.080Z,64.93
2023-11-18T10:22:44.299Z,64.74
2023-11-18T10:25:11.047Z,64.55
2023-11-18T10:27:39.960Z,64.57
2023-11-18T10:30:20.432Z,64.67
2023-11-18T10:33:07.228Z,64.19
2023-11-18T10:35:36.188Z,64.47
2023-11-18T10:38:05.986Z,64.14
2023-11-18T10:40:37.773Z,64.36
2023-11-18T10:43:11.747Z,64.15
2023-11-18T10:45:45.151Z,64.21
2023-11-18T10:48:17.979Z,63.78
2023-11-18T10:50:49.416Z,64.00
2023-11-18T10:53:17.805Z,64.30
2023-11-18T10:55:45.488Z,63.92
2023-11-18T10:58:15.633Z,64.09
2023-11-18T11:00:56.960Z,63.50
2023-11-18T11:03:26.624Z,64.14
2023-11-18T11:05:55.817Z,64.03
2023-11-18T11:08:29.450Z,63.67
2023-11-18T11:11:09.601Z,64.04
2023-11-18T11:13:39.208Z,64.19
2023-11-18T11:16:11.729Z,64.20
2023-11-18T11:18:46.548Z,64.03
2023-11-18T11:21:23.284Z,63.40
2023-11-18T11:23:51.938Z,63.61
2023-11-18T11:26:31.983Z,63.74
2023-11-18T11:29:21.122Z,63.70
2023-11-18T11:32:14.062Z,63.51
2023-11-18T11:35:18.398Z,63.24
2023-11-18T11:37:46.125Z,63.12
2023-11-18T11:40:22.879Z,63.01
2023-11-18T11:42:57.511Z,62.82
2023-11-18T11:45:29.620Z,63.08
2023-11-18T11:48:14.821Z,63.13
2023-11-18T11:51:05.420Z,62.89
2023-11-18T11:53:41.150Z,62.88
2023-11-18T11:56:08.681Z,63.09
2023-11-18T11:58:39.617Z,62.76
2023-11-18T12:01:33.748Z,62.59
2023-11-18T12:04:08.675Z,62.82
2023-11-18T12:06:42.673Z,62.57
2023-11-18T12:09:10.879Z,62.79
2023-11-18T12:11:40.986Z,62.53
2023-11-18T12:14:37.478Z,62.11
2023-11-18T12:17:13.077Z,61.99
2023-11-18T12:19:50.401Z,62.05
2023-11-18T12:22:31.988Z,61.37
2023-11-18T12:25:01.091Z,62.24
2023-11-18T12:27:53.502Z,61.80
2023-11-18T12:30:27.760Z,62.11
2023-11-18T12:33:10.843Z,61.82
2023-11-18T12:35:58.611Z,62.06
2023-11-18T12:38:50.344Z,61.84
2023-11-18T12:41:41.722Z,62.02
2023-11-18T12:44:37.610Z,61.66
2023-11-18T12:47:16.244Z,62.22
2023-11-18T12:49:43.959Z,62.05
2023-11-18T12:52:19.872Z,62.01
2023-11-18T12:54:52.035Z,62.00
2023-11-18T12:57:24.268Z,62.21
2023-11-18T12:59:52.687Z,62.44
2023-11-18T13:02:21.385Z,62.47
2023-11-18T13:04:48.614Z,62.43
2023-11-18T13:07:19.920Z,61.87
2023-11-18T13:09:47.389Z,62.25
2023-11-18T13:12:16.765Z,62.49
2023-11-18T13:14:44.155Z,62.41
2023-11-18T13:17:17.018Z,62.60
2023-11-18T13:19:45.436Z,61.74
2023-11-18T13:22:13.789Z,62.13
2023-11-18T13:24:42.541Z,61.81
2023-11-18T13:27:10.561Z,62.25
2023-11-18T13:29:40.895Z,62.30
2023-11-18T13:32:08.518Z,61.80
2023-11-18T13:34:39.060Z,61.68
2023-11-18T13:37:25.789Z,62.34
2023-11-18T13:39:56.873Z,62.31
2023-11-18T13:42:25.462Z,62.52
2023-11-18T13:44:54.290Z,61.94
2023-11-18T13:47:22.107Z,62.61
2023-11-18T13:49:51.962Z,62.41
2023-11-18T13:52:20.464Z,62.22
2023-11-18T13:54:48.745Z,62.66
2023-11-18T13:57:16.118Z,62.73
2023-11-18T13:59:45.953Z,62.17
2023-11-18T14:02:13.042Z,62.97
2023-11-18T14:04:41.091Z,63.13
2023-11-18T14:07:10.611Z,62.57
2023-11-18T14:09:41.232Z,63.00
2023-11-18T14:12:09.569Z,62.47
2023-11-18T14:14:36.934Z,62.38
2023-11-18T14:17:04.126Z,62.47
2023-11-18T14:19:31.460Z,62.37
2023-11-18T14:21:58.622Z,62.60
2023-11-18T14:24:29.005Z,62.59
2023-11-18T14:26:58.001Z,62.45
2023-11-18T14:29:28.340Z,62.46
2023-11-18T14:31:56.390Z,62.04
2023-11-18T14:34:23.270Z,62.40
2023-11-18T14:36:50.315Z,61.84
2023-11-18T14:39:21.660Z,62.51
2023-11-18T14:41:48.784Z,62.28
2023-11-18T14:44:15.686Z,62.71
2023-11-18T14:46:42.629Z,62.39
2023-11-18T14:49:11.506Z,62.29
2023-11-18T14:51:38.753Z,62.27
2023-11-18T14:54:07.165Z,62.99
2023-11-18T14:56:36.338Z,62.64
2023-11-18T14:59:06.454Z,62.25
2023-11-18T15:01:33.756Z,62.44
2023-11-18T15:04:00.753Z,62.25
2023-11-18T15:06:28.571Z,62.49
2023-11-18T15:08:58.299Z,62.65
2023-11-18T15:11:25.594Z,62.54
2023-11-18T15:13:54.890Z,62.71
2023-11-18T15:16:22.043Z,62.56
2023-11-18T15:18:49.123Z,62.49
2023-11-18T15:21:16.854Z,62.41
2023-11-18T15:23:44.471Z,62.49
2023-11-18T15:26:11.384Z,62.57
2023-11-18T15:28:38.295Z,62.50
2023-11-18T15:31:12.214Z,62.26
2023-11-18T15:33:40.108Z,62.65
2023-11-18T15:36:08.832Z,61.96
2023-11-18T15:38:37.018Z,62.52
2023-11-18T15:41:04.300Z,62.51
2023-11-18T15:43:31.462Z,61.75
2023-11-18T15:46:00.716Z,61.94
2023-11-18T15:48:30.806Z,61.96
2023-11-18T15:50:59.321Z,62.01
2023-11-18T15:53:29.219Z,61.96
2023-11-18T15:55:56.325Z,62.46
2023-11-18T15:58:27.369Z,62.18
2023-11-18T16:00:54.496Z,62.22
2023-11-18T16:03:21.531Z,62.11
2023-11-18T16:05:48.426Z,62.11
2023-11-18T16:08:15.223Z,62.31
2023-11-18T16:10:43.981Z,61.80
2023-11-18T16:13:11.440Z,62.37
2023-11-18T16:15:38.204Z,62.16
2023-11-18T16:18:05.635Z,62.56
2023-11-18T16:20:36.242Z,62.25
2023-11-18T16:23:04.927Z,62.33
2023-11-18T16:25:33.413Z,62.45
2023-11-18T16:28:01.353Z,62.58
2023-11-18T16:30:32.035Z,61.98
2023-11-18T16:33:02.832Z,62.24
2023-11-18T16:35:31.049Z,62.49
2023-11-18T16:38:01.457Z,61.98
2023-11-18T16:40:29.945Z,62.62
2023-11-18T16:42:57.352Z,62.02
2023-11-18T16:45:26.160Z,62.62
2023-11-18T16:47:56.574Z,62.09
2023-11-18T16:50:25.787Z,62.21
2023-11-18T16:52:53.376Z,62.33
2023-11-18T16:55:22.900Z,61.58
2023-11-18T16:57:54.146Z,61.80
2023-11-18T17:00:26.585Z,61.47
2023-11-18T17:02:59.507Z,61.78
2023-11-18T17:05:31.690Z,61.24
2023-11-18T17:08:00.617Z,61.54
2023-11-18T17:10:29.258Z,61.55
2023-11-18T17:12:57.680Z,61.42
2023-11-18T17:15:24.773Z,61.66
2023-11-18T17:18:02.700Z,61.42
2023-11-18T17:20:31.352Z,61.01
2023-11-18T17:22:58.168Z,61.03
2023-11-18T17:25:27.165Z,61.33
2023-11-18T17:27:56.811Z,60.97
2023-11-18T17:30:23.791Z,61.48
2023-11-18T17:32:54.165Z,61.37
2023-11-18T17:35:21.915Z,61.49
2023-11-18T17:37:49.145Z,61.28
2023-11-18T17:40:17.042Z,61.15
2023-11-18T17:42:46.061Z,61.30
2023-11-18T17:45:14.544Z,61.07
2023-11-18T17:47:45.860Z,61.00
2023-11-18T17:50:15.587Z,60.80
2023-11-18T17:52:47.929Z,60.80
2023-11-18T17:55:18.467Z,61.30
2023-11-18T17:57:46.026Z,61.27
2023-11-18T18:00:14.739Z,60.78
2023-11-18T18:02:43.544Z,60.59
2023-11-18T18:05:13.926Z,60.73
2023-11-18T18:07:41.566Z,60.95
2023-11-18T18:10:09.941Z,60.67
2023-11-18T18:12:37.796Z,60.36
2023-11-18T18:15:09.404Z,61.03
2023-11-18T18:17:38.350Z,60.27
2023-11-18T18:20:10.269Z,60.55
2023-11-18T18:22:39.281Z,60.51
2023-11-18T18:25:07.691Z,59.93
2023-11-18T18:27:35.426Z,60.08
2023-11-18T18:30:02.963Z,60.30
2023-11-18T18:32:30.690Z,60.04
2023-11-18T18:34:59.117Z,60.13
2023-11-18T18:37:28.033Z,59.89
2023-11-18T18:39:57.855Z,59.73
2023-11-18T18:42:27.718Z,59.57
2023-11-18T18:44:56.434Z,59.31
2023-11-18T18:47:24.619Z,59.17
2023-11-18T18:49:52.759Z,59.56
2023-11-18T18:52:19.641Z,59.24
2023-11-18T18:54:46.732Z,58.99
2023-11-18T18:57:13.794Z,59.40
2023-11-18T18:59:40.886Z,59.05
2023-11-18T19:02:09.367Z,59.09
2023-11-18T19:04:36.258Z,59.23
2023-11-18T19:07:02.995Z,59.40
2023-11-18T19:09:31.092Z,59.18
2023-11-18T19:11:58.283Z,59.23
2023-11-18T19:14:25.167Z,59.69
2023-11-18T19:16:52.152Z,59.46
2023-11-18T19:19:19.918Z,59.65
2023-11-18T19:21:48.434Z,59.21
2023-11-18T19:24:15.784Z,59.42
2023-11-18T19:26:42.592Z,59.15
2023-11-18T19:29:09.419Z,59.06
2023-11-18T19:31:36.246Z,58.63
2023-11-18T19:34:03.165Z,58.46
2023-11-18T19:36:29.947Z,58.64
2023-11-18T19:38:56.882Z,58.44
2023-11-18T19:41:23.778Z,58.30
2023-11-18T19:43:51.849Z,58.53
2023-11-18T19:46:18.849Z,58.34
2023-11-18T19:48:45.600Z,58.54
2023-11-18T19:51:12.510Z,58.31
2023-11-18T19:53:39.608Z,58.41
2023-11-18T19:56:08.141Z,58.14
2023-11-18T19:58:37.361Z,58.08
2023-11-18T20:01:04.351Z,58.08
2023-11-18T20:03:31.548Z,58.06
2023-11-18T20:05:58.332Z,58.10
2023-11-18T20:08:25.807Z,57.73
2023-11-18T20:10:52.759Z,57.92
2023-11-18T20:13:21.303Z,57.87
2023-11-18T20:15:48.060Z,57.67
2023-11-18T20:18:14.889Z,57.66
2023-11-18T20:20:42.841Z,57.60
2023-11-18T20:23:10.615Z,57.62
2023-11-18T20:25:37.520Z,57.55
2023-11-18T20:28:04.320Z,57.71
2023-11-18T20:30:34.646Z,57.73
2023-11-18T20:33:02.696Z,57.98
2023-11-18T20:35:29.550Z,57.37
2023-11-18T20:37:57.750Z,57.44
2023-11-18T20:40:24.622Z,57.50
2023-11-18T20:42:53.375Z,57.31
2023-11-18T20:45:20.425Z,57.39
2023-11-18T20:47:48.178Z,57.69
2023-11-18T20:50:15.900Z,57.70
2023-11-18T20:52:43.346Z,57.69
2023-11-18T20:55:10.470Z,57.38
2023-11-18T20:57:40.752Z,57.14
2023-11-18T21:00:09.214Z,57.23
2023-11-18T21:02:37.559Z,57.28
2023-11-18T21:05:06.920Z,56.98
2023-11-18T21:07:34.226Z,56.97
2023-11-18T21:10:01.048Z,57.00
2023-11-18T21:12:27.807Z,57.12
2023-11-18T21:14:54.941Z,56.97
2023-11-18T21:17:26.417Z,57.07
2023-11-18T21:19:54.260Z,56.88
2023-11-18T21:22:21.184Z,56.65
2023-11-18T21:24:48.519Z,56.92
2023-11-18T21:27:16.529Z,56.74
2023-11-18T21:29:44.401Z,56.69
2023-11-18T21:32:12.390Z,56.66
2023-11-18T21:34:42.356Z,56.70
2023-11-18T21:37:14.289Z,56.89
2023-11-18T21:39:41.202Z,56.65
2023-11-18T21:42:09.453Z,56.53
2023-11-18T21:44:37.109Z,57.00
2023-11-18T21:47:05.133Z,57.16
2023-11-18T21:49:33.029Z,56.82
2023-11-18T21:52:01.768Z,56.69
2023-11-18T21:54:31.941Z,56.72
2023-11-18T21:56:58.983Z,56.53
2023-11-18T21:59:27.396Z,56.84
2023-11-18T22:01:56.286Z,56.69
2023-11-18T22:04:24.017Z,56.78
2023-11-18T22:06:54.372Z,56.45
2023-11-18T22:09:25.029Z,56.67
2023-11-18T22:11:52.134Z,57.01
2023-11-18T22:14:19.793Z,57.02
2023-11-18T22:16:47.186Z,56.97
2023-11-18T22:19:16.555Z,56.47
2023-11-18T22:21:44.858Z,56.94
2023-11-18T22:24:11.669Z,56.91
2023-11-18T22:26:39.141Z,56.41
2023-11-18T22:29:06.153Z,56.43
2023-11-18T22:31:33.046Z,56.83
2023-11-18T22:34:00.365Z,56.49
2023-11-18T22:36:27.979Z,56.93
2023-11-18T22:38:54.717Z,56.87
2023-11-18T22:41:27.933Z,56.75
2023-11-18T22:43:54.704Z,57.22
2023-11-18T22:46:21.686Z,56.94
2023-11-18T22:48:50.321Z,57.11
2023-11-18T22:51:17.848Z,56.93
2023-11-18T22:53:45.658Z,57.02
2023-11-18T22:56:15.508Z,57.23
2023-11-18T22:58:42.953Z,57.48
2023-11-18T23:01:13.044Z,57.77
2023-11-18T23:03:40.402Z,57.97
2023-11-18T23:06:10.785Z,57.43
2023-11-18T23:08:38.054Z,57.58
2023-11-18T23:11:05.181Z,57.02
2023-11-18T23:13:31.986Z,57.60
2023-11-18T23:16:01.918Z,57.48
2023-11-18T23:18:30.728Z,57.15
2023-11-18T23:20:59.017Z,57.44
2023-11-18T23:23:26.216Z,58.10
2023-11-18T23:25:53.255Z,57.90
2023-11-18T23:28:20.194Z,58.26
2023-11-18T23:30:51.595Z,57.95
2023-11-18T23:33:19.852Z,58.10
2023-11-18T23:35:46.646Z,57.96
2023-11-18T23:38:13.349Z,58.63
2023-11-18T23:40:45.438Z,58.06
2023-11-18T23:43:12.225Z,58.18
2023-11-18T23:45:42.609Z,57.69
2023-11-18T23:48:12.980Z,58.33
2023-11-18T23:50:39.745Z,58.48
2023-11-18T23:53:08.188Z,58.62
2023-11-18T23:55:34.955Z,58.41
2023-11-18T23:58:02.280Z,58.27
